sensor_id;sensor_type;location;lat;lon;timestamp;P1;durP1;ratioP1;P2;durP2;ratioP2
42704;SDS011;28342;42.594;23.414;2024-02-21T00:02:04;6.50;;;4.00;;
42704;SDS011;28342;42.594;23.414;2024-02-21T00:04:29;5.28;;;4.10;;
42704;SDS011;28342;42.594;23.414;2024-02-21T00:06:55;5.65;;;3.95;;
42704;SDS011;28342;42.594;23.414;2024-02-21T00:09:20;5.78;;;4.20;;
42704;SDS011;28342;42.594;23.414;2024-02-21T00:11:45;5.20;;;3.85;;
42704;SDS011;28342;42.594;23.414;2024-02-21T00:14:11;5.63;;;4.03;;
42704;SDS011;28342;42.594;23.414;2024-02-21T00:16:36;7.32;;;4.03;;
42704;SDS011;28342;42.594;23.414;2024-02-21T00:19:02;4.47;;;3.40;;
42704;SDS011;28342;42.594;23.414;2024-02-21T00:21:27;6.55;;;3.70;;
42704;SDS011;28342;42.594;23.414;2024-02-21T00:23:53;6.00;;;3.80;;
42704;SDS011;28342;42.594;23.414;2024-02-21T00:26:18;6.38;;;4.10;;
42704;SDS011;28342;42.594;23.414;2024-02-21T00:28:43;5.18;;;4.15;;
42704;SDS011;28342;42.594;23.414;2024-02-21T00:31:10;5.88;;;3.88;;
42704;SDS011;28342;42.594;23.414;2024-02-21T00:33:35;4.88;;;3.30;;
42704;SDS011;28342;42.594;23.414;2024-02-21T00:36:01;6.03;;;3.58;;
42704;SDS011;28342;42.594;23.414;2024-02-21T00:38:26;5.75;;;3.65;;
42704;SDS011;28342;42.594;23.414;2024-02-21T00:40:51;5.85;;;4.07;;
42704;SDS011;28342;42.594;23.414;2024-02-21T00:43:17;4.43;;;3.70;;
42704;SDS011;28342;42.594;23.414;2024-02-21T00:45:42;3.70;;;3.35;;
42704;SDS011;28342;42.594;23.414;2024-02-21T00:48:08;5.50;;;3.60;;
42704;SDS011;28342;42.594;23.414;2024-02-21T00:50:33;6.35;;;3.75;;
42704;SDS011;28342;42.594;23.414;2024-02-21T00:52:59;4.13;;;3.40;;
42704;SDS011;28342;42.594;23.414;2024-02-21T00:55:24;5.50;;;4.00;;
42704;SDS011;28342;42.594;23.414;2024-02-21T00:57:49;4.30;;;3.38;;
42704;SDS011;28342;42.594;23.414;2024-02-21T01:00:15;9.38;;;3.22;;
42704;SDS011;28342;42.594;23.414;2024-02-21T01:02:41;3.92;;;3.15;;
42704;SDS011;28342;42.594;23.414;2024-02-21T01:05:06;4.20;;;3.45;;
42704;SDS011;28342;42.594;23.414;2024-02-21T01:07:32;4.75;;;3.78;;
42704;SDS011;28342;42.594;23.414;2024-02-21T01:09:57;3.63;;;3.25;;
42704;SDS011;28342;42.594;23.414;2024-02-21T01:12:23;3.47;;;3.08;;
42704;SDS011;28342;42.594;23.414;2024-02-21T01:14:48;3.90;;;3.47;;
42704;SDS011;28342;42.594;23.414;2024-02-21T01:17:14;4.60;;;3.10;;
42704;SDS011;28342;42.594;23.414;2024-02-21T01:19:40;4.80;;;3.30;;
42704;SDS011;28342;42.594;23.414;2024-02-21T01:22:06;4.40;;;3.40;;
42704;SDS011;28342;42.594;23.414;2024-02-21T01:24:31;4.22;;;3.25;;
42704;SDS011;28342;42.594;23.414;2024-02-21T01:26:57;3.67;;;3.25;;
42704;SDS011;28342;42.594;23.414;2024-02-21T01:29:22;3.20;;;2.80;;
42704;SDS011;28342;42.594;23.414;2024-02-21T01:31:47;4.55;;;3.08;;
42704;SDS011;28342;42.594;23.414;2024-02-21T01:34:13;4.60;;;3.45;;
42704;SDS011;28342;42.594;23.414;2024-02-21T01:36:38;5.20;;;3.20;;
42704;SDS011;28342;42.594;23.414;2024-02-21T01:39:04;3.60;;;3.17;;
42704;SDS011;28342;42.594;23.414;2024-02-21T01:41:30;3.25;;;2.95;;
42704;SDS011;28342;42.594;23.414;2024-02-21T01:43:56;3.13;;;2.72;;
42704;SDS011;28342;42.594;23.414;2024-02-21T01:46:22;3.95;;;2.72;;
42704;SDS011;28342;42.594;23.414;2024-02-21T01:48:48;3.38;;;3.03;;
42704;SDS011;28342;42.594;23.414;2024-02-21T01:51:13;4.93;;;3.22;;
42704;SDS011;28342;42.594;23.414;2024-02-21T01:53:42;3.25;;;2.80;;
42704;SDS011;28342;42.594;23.414;2024-02-21T01:56:09;3.13;;;2.83;;
42704;SDS011;28342;42.594;23.414;2024-02-21T01:58:35;4.47;;;3.38;;
42704;SDS011;28342;42.594;23.414;2024-02-21T02:01:02;12.82;;;3.35;;
42704;SDS011;28342;42.594;23.414;2024-02-21T02:03:28;10.20;;;3.22;;
42704;SDS011;28342;42.594;23.414;2024-02-21T02:05:55;3.42;;;2.75;;
42704;SDS011;28342;42.594;23.414;2024-02-21T02:08:20;3.13;;;2.80;;
42704;SDS011;28342;42.594;23.414;2024-02-21T02:10:49;3.08;;;2.50;;
42704;SDS011;28342;42.594;23.414;2024-02-21T02:13:14;3.38;;;2.83;;
42704;SDS011;28342;42.594;23.414;2024-02-21T02:15:41;3.40;;;2.95;;
42704;SDS011;28342;42.594;23.414;2024-02-21T02:18:07;3.85;;;2.83;;
42704;SDS011;28342;42.594;23.414;2024-02-21T02:20:33;4.93;;;2.78;;
42704;SDS011;28342;42.594;23.414;2024-02-21T02:23:00;3.08;;;2.63;;
42704;SDS011;28342;42.594;23.414;2024-02-21T02:25:32;3.17;;;2.85;;
42704;SDS011;28342;42.594;23.414;2024-02-21T02:27:57;6.93;;;3.08;;
42704;SDS011;28342;42.594;23.414;2024-02-21T02:30:22;5.95;;;2.95;;
42704;SDS011;28342;42.594;23.414;2024-02-21T02:32:48;3.28;;;2.33;;
42704;SDS011;28342;42.594;23.414;2024-02-21T02:35:13;4.30;;;2.60;;
42704;SDS011;28342;42.594;23.414;2024-02-21T02:37:39;2.65;;;2.45;;
42704;SDS011;28342;42.594;23.414;2024-02-21T02:40:05;3.35;;;2.83;;
42704;SDS011;28342;42.594;23.414;2024-02-21T02:42:32;3.55;;;3.05;;
42704;SDS011;28342;42.594;23.414;2024-02-21T02:44:57;3.10;;;2.80;;
42704;SDS011;28342;42.594;23.414;2024-02-21T02:47:23;2.75;;;2.50;;
42704;SDS011;28342;42.594;23.414;2024-02-21T02:49:48;2.42;;;2.22;;
42704;SDS011;28342;42.594;23.414;2024-02-21T02:52:16;3.22;;;2.90;;
42704;SDS011;28342;42.594;23.414;2024-02-21T02:54:42;3.28;;;2.65;;
42704;SDS011;28342;42.594;23.414;2024-02-21T02:57:08;3.20;;;2.78;;
42704;SDS011;28342;42.594;23.414;2024-02-21T02:59:34;2.78;;;2.50;;
42704;SDS011;28342;42.594;23.414;2024-02-21T03:01:59;3.15;;;2.70;;
42704;SDS011;28342;42.594;23.414;2024-02-21T03:04:24;3.38;;;2.60;;
42704;SDS011;28342;42.594;23.414;2024-02-21T03:06:50;3.13;;;2.40;;
42704;SDS011;28342;42.594;23.414;2024-02-21T03:09:15;3.70;;;3.08;;
42704;SDS011;28342;42.594;23.414;2024-02-21T03:11:42;3.13;;;2.83;;
42704;SDS011;28342;42.594;23.414;2024-02-21T03:14:09;3.63;;;2.92;;
42704;SDS011;28342;42.594;23.414;2024-02-21T03:16:35;3.70;;;3.33;;
42704;SDS011;28342;42.594;23.414;2024-02-21T03:19:00;3.38;;;2.70;;
42704;SDS011;28342;42.594;23.414;2024-02-21T03:21:25;2.88;;;2.63;;
42704;SDS011;28342;42.594;23.414;2024-02-21T03:23:51;3.38;;;2.80;;
42704;SDS011;28342;42.594;23.414;2024-02-21T03:26:16;3.42;;;2.70;;
42704;SDS011;28342;42.594;23.414;2024-02-21T03:28:42;4.63;;;3.05;;
42704;SDS011;28342;42.594;23.414;2024-02-21T03:31:13;3.00;;;2.70;;
42704;SDS011;28342;42.594;23.414;2024-02-21T03:33:39;3.55;;;2.72;;
42704;SDS011;28342;42.594;23.414;2024-02-21T03:36:06;3.28;;;2.88;;
42704;SDS011;28342;42.594;23.414;2024-02-21T03:38:32;2.85;;;2.60;;
42704;SDS011;28342;42.594;23.414;2024-02-21T03:40:57;2.80;;;2.60;;
42704;SDS011;28342;42.594;23.414;2024-02-21T03:43:22;2.70;;;2.50;;
42704;SDS011;28342;42.594;23.414;2024-02-21T03:45:48;2.92;;;2.55;;
42704;SDS011;28342;42.594;23.414;2024-02-21T03:48:14;3.05;;;2.75;;
42704;SDS011;28342;42.594;23.414;2024-02-21T03:50:39;2.65;;;2.45;;
42704;SDS011;28342;42.594;23.414;2024-02-21T03:53:04;2.85;;;2.60;;
42704;SDS011;28342;42.594;23.414;2024-02-21T03:55:30;2.45;;;2.25;;
42704;SDS011;28342;42.594;23.414;2024-02-21T03:57:55;3.40;;;2.65;;
42704;SDS011;28342;42.594;23.414;2024-02-21T04:00:20;2.72;;;2.47;;
42704;SDS011;28342;42.594;23.414;2024-02-21T04:02:46;2.85;;;2.63;;
42704;SDS011;28342;42.594;23.414;2024-02-21T04:05:11;3.05;;;2.72;;
42704;SDS011;28342;42.594;23.414;2024-02-21T04:07:41;2.58;;;2.38;;
42704;SDS011;28342;42.594;23.414;2024-02-21T04:10:06;4.05;;;2.92;;
42704;SDS011;28342;42.594;23.414;2024-02-21T04:12:32;2.90;;;2.70;;
42704;SDS011;28342;42.594;23.414;2024-02-21T04:14:58;2.60;;;2.40;;
42704;SDS011;28342;42.594;23.414;2024-02-21T04:17:23;3.00;;;2.70;;
42704;SDS011;28342;42.594;23.414;2024-02-21T04:19:48;7.25;;;3.30;;
42704;SDS011;28342;42.594;23.414;2024-02-21T04:22:14;2.85;;;2.60;;
42704;SDS011;28342;42.594;23.414;2024-02-21T04:24:39;3.05;;;2.70;;
42704;SDS011;28342;42.594;23.414;2024-02-21T04:27:05;2.90;;;2.60;;
42704;SDS011;28342;42.594;23.414;2024-02-21T04:29:30;3.10;;;2.67;;
42704;SDS011;28342;42.594;23.414;2024-02-21T04:31:55;3.22;;;2.75;;
42704;SDS011;28342;42.594;23.414;2024-02-21T04:34:21;3.25;;;2.95;;
42704;SDS011;28342;42.594;23.414;2024-02-21T04:36:47;2.45;;;2.25;;
42704;SDS011;28342;42.594;23.414;2024-02-21T04:39:12;3.13;;;2.83;;
42704;SDS011;28342;42.594;23.414;2024-02-21T04:41:38;3.40;;;3.10;;
42704;SDS011;28342;42.594;23.414;2024-02-21T04:44:03;5.28;;;2.80;;
42704;SDS011;28342;42.594;23.414;2024-02-21T04:46:29;2.70;;;2.50;;
42704;SDS011;28342;42.594;23.414;2024-02-21T04:48:54;2.95;;;2.65;;
42704;SDS011;28342;42.594;23.414;2024-02-21T04:51:20;3.45;;;2.47;;
42704;SDS011;28342;42.594;23.414;2024-02-21T04:53:46;3.70;;;2.78;;
42704;SDS011;28342;42.594;23.414;2024-02-21T04:56:11;5.18;;;2.67;;
42704;SDS011;28342;42.594;23.414;2024-02-21T04:58:39;3.20;;;2.90;;
42704;SDS011;28342;42.594;23.414;2024-02-21T05:01:05;4.15;;;2.67;;
42704;SDS011;28342;42.594;23.414;2024-02-21T05:03:31;2.60;;;2.40;;
42704;SDS011;28342;42.594;23.414;2024-02-21T05:05:56;3.40;;;2.70;;
42704;SDS011;28342;42.594;23.414;2024-02-21T05:08:21;2.67;;;2.28;;
42704;SDS011;28342;42.594;23.414;2024-02-21T05:10:47;3.28;;;2.55;;
42704;SDS011;28342;42.594;23.414;2024-02-21T05:13:12;8.73;;;3.05;;
42704;SDS011;28342;42.594;23.414;2024-02-21T05:15:38;5.40;;;2.97;;
42704;SDS011;28342;42.594;23.414;2024-02-21T05:18:03;3.17;;;2.67;;
42704;SDS011;28342;42.594;23.414;2024-02-21T05:20:28;2.97;;;2.67;;
42704;SDS011;28342;42.594;23.414;2024-02-21T05:22:54;3.67;;;3.20;;
42704;SDS011;28342;42.594;23.414;2024-02-21T05:25:19;3.17;;;2.50;;
42704;SDS011;28342;42.594;23.414;2024-02-21T05:27:45;3.42;;;2.58;;
42704;SDS011;28342;42.594;23.414;2024-02-21T05:30:11;3.25;;;2.65;;
42704;SDS011;28342;42.594;23.414;2024-02-21T05:32:37;3.00;;;2.70;;
42704;SDS011;28342;42.594;23.414;2024-02-21T05:35:02;3.75;;;2.88;;
42704;SDS011;28342;42.594;23.414;2024-02-21T05:37:28;6.32;;;2.90;;
42704;SDS011;28342;42.594;23.414;2024-02-21T05:39:56;4.22;;;3.33;;
42704;SDS011;28342;42.594;23.414;2024-02-21T05:42:21;3.35;;;2.80;;
42704;SDS011;28342;42.594;23.414;2024-02-21T05:44:47;3.97;;;3.08;;
42704;SDS011;28342;42.594;23.414;2024-02-21T05:47:12;5.03;;;3.25;;
42704;SDS011;28342;42.594;23.414;2024-02-21T05:49:40;3.53;;;3.10;;
42704;SDS011;28342;42.594;23.414;2024-02-21T05:52:05;9.65;;;3.30;;
42704;SDS011;28342;42.594;23.414;2024-02-21T05:54:31;7.35;;;3.50;;
42704;SDS011;28342;42.594;23.414;2024-02-21T05:56:57;4.07;;;2.85;;
42704;SDS011;28342;42.594;23.414;2024-02-21T05:59:22;3.63;;;3.05;;
42704;SDS011;28342;42.594;23.414;2024-02-21T06:01:57;4.22;;;3.63;;
42704;SDS011;28342;42.594;23.414;2024-02-21T06:04:23;3.63;;;2.80;;
42704;SDS011;28342;42.594;23.414;2024-02-21T06:06:48;9.07;;;3.13;;
42704;SDS011;28342;42.594;23.414;2024-02-21T06:09:14;5.18;;;3.33;;
42704;SDS011;28342;42.594;23.414;2024-02-21T06:11:39;3.63;;;3.33;;
42704;SDS011;28342;42.594;23.414;2024-02-21T06:14:04;7.88;;;3.10;;
42704;SDS011;28342;42.594;23.414;2024-02-21T06:16:30;5.43;;;3.35;;
42704;SDS011;28342;42.594;23.414;2024-02-21T06:18:55;3.70;;;3.25;;
42704;SDS011;28342;42.594;23.414;2024-02-21T06:21:21;5.18;;;3.17;;
42704;SDS011;28342;42.594;23.414;2024-02-21T06:23:46;3.05;;;2.75;;
42704;SDS011;28342;42.594;23.414;2024-02-21T06:26:11;4.45;;;3.40;;
42704;SDS011;28342;42.594;23.414;2024-02-21T06:28:37;3.30;;;2.85;;
42704;SDS011;28342;42.594;23.414;2024-02-21T06:31:02;5.57;;;3.35;;
42704;SDS011;28342;42.594;23.414;2024-02-21T06:33:28;4.25;;;2.97;;
42704;SDS011;28342;42.594;23.414;2024-02-21T06:35:53;4.22;;;3.20;;
42704;SDS011;28342;42.594;23.414;2024-02-21T06:38:19;4.55;;;3.33;;
42704;SDS011;28342;42.594;23.414;2024-02-21T06:40:44;4.20;;;3.15;;
42704;SDS011;28342;42.594;23.414;2024-02-21T06:43:14;4.63;;;2.92;;
42704;SDS011;28342;42.594;23.414;2024-02-21T06:45:40;3.42;;;2.92;;
42704;SDS011;28342;42.594;23.414;2024-02-21T06:48:05;5.30;;;3.50;;
42704;SDS011;28342;42.594;23.414;2024-02-21T06:50:31;4.47;;;3.25;;
42704;SDS011;28342;42.594;23.414;2024-02-21T06:52:56;3.67;;;3.05;;
42704;SDS011;28342;42.594;23.414;2024-02-21T06:55:22;3.60;;;3.30;;
42704;SDS011;28342;42.594;23.414;2024-02-21T06:57:47;3.83;;;3.47;;
42704;SDS011;28342;42.594;23.414;2024-02-21T07:00:13;3.67;;;3.35;;
42704;SDS011;28342;42.594;23.414;2024-02-21T07:02:39;3.80;;;3.10;;
42704;SDS011;28342;42.594;23.414;2024-02-21T07:05:04;4.20;;;3.20;;
42704;SDS011;28342;42.594;23.414;2024-02-21T07:07:30;4.15;;;2.88;;
42704;SDS011;28342;42.594;23.414;2024-02-21T07:09:55;4.30;;;3.15;;
42704;SDS011;28342;42.594;23.414;2024-02-21T07:12:21;3.90;;;3.28;;
42704;SDS011;28342;42.594;23.414;2024-02-21T07:14:46;4.47;;;3.30;;
42704;SDS011;28342;42.594;23.414;2024-02-21T07:17:12;5.38;;;3.47;;
42704;SDS011;28342;42.594;23.414;2024-02-21T07:19:37;4.28;;;3.28;;
42704;SDS011;28342;42.594;23.414;2024-02-21T07:22:02;3.40;;;3.05;;
42704;SDS011;28342;42.594;23.414;2024-02-21T07:24:28;3.22;;;2.92;;
42704;SDS011;28342;42.594;23.414;2024-02-21T07:26:53;5.80;;;3.60;;
42704;SDS011;28342;42.594;23.414;2024-02-21T07:29:19;3.45;;;3.15;;
42704;SDS011;28342;42.594;23.414;2024-02-21T07:31:44;3.70;;;3.15;;
42704;SDS011;28342;42.594;23.414;2024-02-21T07:34:10;8.93;;;3.75;;
42704;SDS011;28342;42.594;23.414;2024-02-21T07:36:35;4.63;;;3.35;;
42704;SDS011;28342;42.594;23.414;2024-02-21T07:39:03;4.22;;;3.42;;
42704;SDS011;28342;42.594;23.414;2024-02-21T07:41:29;3.80;;;3.28;;
42704;SDS011;28342;42.594;23.414;2024-02-21T07:43:55;7.90;;;3.17;;
42704;SDS011;28342;42.594;23.414;2024-02-21T07:46:21;8.85;;;4.05;;
42704;SDS011;28342;42.594;23.414;2024-02-21T07:48:46;11.18;;;3.38;;
42704;SDS011;28342;42.594;23.414;2024-02-21T07:51:12;3.85;;;3.45;;
42704;SDS011;28342;42.594;23.414;2024-02-21T07:53:41;5.15;;;3.40;;
42704;SDS011;28342;42.594;23.414;2024-02-21T07:56:13;4.18;;;3.13;;
42704;SDS011;28342;42.594;23.414;2024-02-21T07:58:42;4.15;;;3.40;;
42704;SDS011;28342;42.594;23.414;2024-02-21T08:01:08;5.13;;;3.10;;
42704;SDS011;28342;42.594;23.414;2024-02-21T08:03:33;3.70;;;2.92;;
42704;SDS011;28342;42.594;23.414;2024-02-21T08:05:59;3.45;;;3.15;;
42704;SDS011;28342;42.594;23.414;2024-02-21T08:08:24;4.47;;;3.03;;
42704;SDS011;28342;42.594;23.414;2024-02-21T08:10:51;5.20;;;3.33;;
42704;SDS011;28342;42.594;23.414;2024-02-21T08:13:17;3.85;;;3.30;;
42704;SDS011;28342;42.594;23.414;2024-02-21T08:15:42;4.95;;;3.22;;
42704;SDS011;28342;42.594;23.414;2024-02-21T08:18:08;5.65;;;3.63;;
42704;SDS011;28342;42.594;23.414;2024-02-21T08:20:33;4.97;;;3.45;;
42704;SDS011;28342;42.594;23.414;2024-02-21T08:22:59;4.57;;;3.38;;
42704;SDS011;28342;42.594;23.414;2024-02-21T08:25:25;4.22;;;3.30;;
42704;SDS011;28342;42.594;23.414;2024-02-21T08:27:50;4.35;;;3.53;;
42704;SDS011;28342;42.594;23.414;2024-02-21T08:30:19;5.47;;;3.22;;
42704;SDS011;28342;42.594;23.414;2024-02-21T08:32:45;3.72;;;3.30;;
42704;SDS011;28342;42.594;23.414;2024-02-21T08:35:10;3.60;;;3.28;;
42704;SDS011;28342;42.594;23.414;2024-02-21T08:37:37;4.35;;;3.60;;
42704;SDS011;28342;42.594;23.414;2024-02-21T08:40:02;4.70;;;3.58;;
42704;SDS011;28342;42.594;23.414;2024-02-21T08:42:33;5.60;;;3.50;;
42704;SDS011;28342;42.594;23.414;2024-02-21T08:45:00;3.97;;;3.00;;
42704;SDS011;28342;42.594;23.414;2024-02-21T08:47:25;3.97;;;3.20;;
42704;SDS011;28342;42.594;23.414;2024-02-21T08:49:50;3.65;;;3.35;;
42704;SDS011;28342;42.594;23.414;2024-02-21T08:52:16;3.85;;;3.15;;
42704;SDS011;28342;42.594;23.414;2024-02-21T08:54:41;4.20;;;3.75;;
42704;SDS011;28342;42.594;23.414;2024-02-21T08:57:07;3.60;;;3.30;;
42704;SDS011;28342;42.594;23.414;2024-02-21T08:59:33;4.80;;;3.58;;
42704;SDS011;28342;42.594;23.414;2024-02-21T09:01:58;3.42;;;3.13;;
42704;SDS011;28342;42.594;23.414;2024-02-21T09:04:24;3.50;;;3.20;;
42704;SDS011;28342;42.594;23.414;2024-02-21T09:06:49;4.00;;;3.60;;
42704;SDS011;28342;42.594;23.414;2024-02-21T09:09:15;4.38;;;3.40;;
42704;SDS011;28342;42.594;23.414;2024-02-21T09:11:40;3.78;;;3.20;;
42704;SDS011;28342;42.594;23.414;2024-02-21T09:14:05;3.67;;;3.30;;
42704;SDS011;28342;42.594;23.414;2024-02-21T09:16:31;3.50;;;3.20;;
42704;SDS011;28342;42.594;23.414;2024-02-21T09:18:57;4.20;;;3.40;;
42704;SDS011;28342;42.594;23.414;2024-02-21T09:21:22;4.45;;;3.13;;
42704;SDS011;28342;42.594;23.414;2024-02-21T09:23:48;3.90;;;3.50;;
42704;SDS011;28342;42.594;23.414;2024-02-21T09:26:13;5.20;;;3.35;;
42704;SDS011;28342;42.594;23.414;2024-02-21T09:28:41;3.70;;;3.30;;
42704;SDS011;28342;42.594;23.414;2024-02-21T09:31:07;3.72;;;3.33;;
42704;SDS011;28342;42.594;23.414;2024-02-21T09:33:32;3.65;;;3.35;;
42704;SDS011;28342;42.594;23.414;2024-02-21T09:35:58;3.80;;;3.13;;
42704;SDS011;28342;42.594;23.414;2024-02-21T09:38:23;3.35;;;3.05;;
42704;SDS011;28342;42.594;23.414;2024-02-21T09:40:53;4.10;;;3.55;;
42704;SDS011;28342;42.594;23.414;2024-02-21T09:43:34;3.55;;;3.08;;
42704;SDS011;28342;42.594;23.414;2024-02-21T09:45:59;6.40;;;3.10;;
42704;SDS011;28342;42.594;23.414;2024-02-21T09:51:12;3.70;;;3.28;;
42704;SDS011;28342;42.594;23.414;2024-02-21T09:53:40;3.50;;;3.20;;
42704;SDS011;28342;42.594;23.414;2024-02-21T09:56:09;4.00;;;3.60;;
42704;SDS011;28342;42.594;23.414;2024-02-21T09:58:36;3.63;;;3.33;;
42704;SDS011;28342;42.594;23.414;2024-02-21T10:01:01;4.22;;;3.38;;
42704;SDS011;28342;42.594;23.414;2024-02-21T10:03:30;7.30;;;3.80;;
42704;SDS011;28342;42.594;23.414;2024-02-21T10:05:55;6.88;;;3.80;;
42704;SDS011;28342;42.594;23.414;2024-02-21T10:08:20;10.45;;;3.65;;
42704;SDS011;28342;42.594;23.414;2024-02-21T10:10:46;11.50;;;3.60;;
42704;SDS011;28342;42.594;23.414;2024-02-21T10:13:27;4.57;;;3.05;;
42704;SDS011;28342;42.594;23.414;2024-02-21T10:16:06;3.65;;;3.13;;
42704;SDS011;28342;42.594;23.414;2024-02-21T10:18:32;6.03;;;3.17;;
42704;SDS011;28342;42.594;23.414;2024-02-21T10:20:59;3.58;;;3.28;;
42704;SDS011;28342;42.594;23.414;2024-02-21T10:23:28;5.40;;;3.10;;
42704;SDS011;28342;42.594;23.414;2024-02-21T10:25:54;4.65;;;3.13;;
42704;SDS011;28342;42.594;23.414;2024-02-21T10:28:29;4.60;;;3.20;;
42704;SDS011;28342;42.594;23.414;2024-02-21T10:30:54;6.05;;;3.60;;
42704;SDS011;28342;42.594;23.414;2024-02-21T10:33:20;7.70;;;2.95;;
42704;SDS011;28342;42.594;23.414;2024-02-21T10:35:45;4.43;;;2.90;;
42704;SDS011;28342;42.594;23.414;2024-02-21T10:38:12;3.40;;;3.10;;
42704;SDS011;28342;42.594;23.414;2024-02-21T10:40:38;5.25;;;3.20;;
42704;SDS011;28342;42.594;23.414;2024-02-21T10:43:03;5.95;;;3.22;;
42704;SDS011;28342;42.594;23.414;2024-02-21T10:45:36;4.60;;;3.28;;
42704;SDS011;28342;42.594;23.414;2024-02-21T10:56:15;5.15;;;3.15;;
42704;SDS011;28342;42.594;23.414;2024-02-21T10:58:47;4.07;;;3.30;;
42704;SDS011;28342;42.594;23.414;2024-02-21T11:01:13;3.08;;;2.78;;
42704;SDS011;28342;42.594;23.414;2024-02-21T11:03:41;2.63;;;2.42;;
42704;SDS011;28342;42.594;23.414;2024-02-21T11:06:09;4.57;;;3.05;;
42704;SDS011;28342;42.594;23.414;2024-02-21T11:08:37;3.05;;;2.85;;
42704;SDS011;28342;42.594;23.414;2024-02-21T11:11:02;5.13;;;3.03;;
42704;SDS011;28342;42.594;23.414;2024-02-21T11:13:30;3.58;;;2.78;;
42704;SDS011;28342;42.594;23.414;2024-02-21T11:16:10;4.70;;;2.65;;
42704;SDS011;28342;42.594;23.414;2024-02-21T11:18:39;3.53;;;3.10;;
42704;SDS011;28342;42.594;23.414;2024-02-21T11:21:05;3.72;;;2.65;;
42704;SDS011;28342;42.594;23.414;2024-02-21T11:23:31;3.42;;;3.13;;
42704;SDS011;28342;42.594;23.414;2024-02-21T11:26:09;7.60;;;2.92;;
42704;SDS011;28342;42.594;23.414;2024-02-21T11:28:36;3.90;;;3.20;;
42704;SDS011;28342;42.594;23.414;2024-02-21T11:31:09;3.60;;;2.55;;
42704;SDS011;28342;42.594;23.414;2024-02-21T11:33:39;3.13;;;2.63;;
42704;SDS011;28342;42.594;23.414;2024-02-21T11:36:08;2.95;;;2.65;;
42704;SDS011;28342;42.594;23.414;2024-02-21T11:38:34;4.35;;;2.60;;
42704;SDS011;28342;42.594;23.414;2024-02-21T11:40:59;3.03;;;2.60;;
42704;SDS011;28342;42.594;23.414;2024-02-21T11:43:25;3.70;;;3.03;;
42704;SDS011;28342;42.594;23.414;2024-02-21T11:45:50;3.20;;;2.90;;
42704;SDS011;28342;42.594;23.414;2024-02-21T11:48:23;2.75;;;2.47;;
42704;SDS011;28342;42.594;23.414;2024-02-21T11:50:53;2.78;;;2.58;;
42704;SDS011;28342;42.594;23.414;2024-02-21T11:53:20;4.72;;;2.83;;
42704;SDS011;28342;42.594;23.414;2024-02-21T11:55:45;3.45;;;2.70;;
42704;SDS011;28342;42.594;23.414;2024-02-21T11:58:11;3.00;;;2.72;;
42704;SDS011;28342;42.594;23.414;2024-02-21T12:00:36;3.17;;;2.65;;
42704;SDS011;28342;42.594;23.414;2024-02-21T12:03:02;2.88;;;2.60;;
42704;SDS011;28342;42.594;23.414;2024-02-21T12:05:29;3.08;;;2.50;;
42704;SDS011;28342;42.594;23.414;2024-02-21T12:07:55;3.80;;;2.28;;
42704;SDS011;28342;42.594;23.414;2024-02-21T12:10:20;2.92;;;2.60;;
42704;SDS011;28342;42.594;23.414;2024-02-21T12:12:46;2.53;;;2.33;;
42704;SDS011;28342;42.594;23.414;2024-02-21T12:15:11;2.85;;;2.45;;
42704;SDS011;28342;42.594;23.414;2024-02-21T12:17:37;2.35;;;2.15;;
42704;SDS011;28342;42.594;23.414;2024-02-21T12:20:05;2.97;;;2.55;;
42704;SDS011;28342;42.594;23.414;2024-02-21T12:22:33;3.15;;;2.50;;
42704;SDS011;28342;42.594;23.414;2024-02-21T12:25:02;3.22;;;2.65;;
42704;SDS011;28342;42.594;23.414;2024-02-21T12:27:29;3.15;;;2.53;;
42704;SDS011;28342;42.594;23.414;2024-02-21T12:29:55;3.47;;;2.78;;
42704;SDS011;28342;42.594;23.414;2024-02-21T12:32:20;3.05;;;2.55;;
42704;SDS011;28342;42.594;23.414;2024-02-21T12:34:46;2.60;;;2.40;;
42704;SDS011;28342;42.594;23.414;2024-02-21T12:37:11;3.08;;;2.60;;
42704;SDS011;28342;42.594;23.414;2024-02-21T12:39:41;3.50;;;2.47;;
42704;SDS011;28342;42.594;23.414;2024-02-21T12:42:06;3.10;;;2.80;;
42704;SDS011;28342;42.594;23.414;2024-02-21T12:44:32;2.58;;;2.38;;
42704;SDS011;28342;42.594;23.414;2024-02-21T12:46:57;2.58;;;2.38;;
42704;SDS011;28342;42.594;23.414;2024-02-21T12:49:23;2.65;;;2.45;;
42704;SDS011;28342;42.594;23.414;2024-02-21T12:51:49;3.15;;;2.42;;
42704;SDS011;28342;42.594;23.414;2024-02-21T12:54:14;4.15;;;2.60;;
42704;SDS011;28342;42.594;23.414;2024-02-21T12:56:40;2.15;;;1.95;;
42704;SDS011;28342;42.594;23.414;2024-02-21T12:59:06;3.47;;;2.75;;
42704;SDS011;28342;42.594;23.414;2024-02-21T13:01:34;2.63;;;2.42;;
42704;SDS011;28342;42.594;23.414;2024-02-21T13:04:01;2.45;;;2.25;;
42704;SDS011;28342;42.594;23.414;2024-02-21T13:06:26;2.47;;;2.28;;
42704;SDS011;28342;42.594;23.414;2024-02-21T13:08:52;2.50;;;2.30;;
42704;SDS011;28342;42.594;23.414;2024-02-21T13:11:18;3.20;;;2.03;;
42704;SDS011;28342;42.594;23.414;2024-02-21T13:13:44;2.72;;;2.53;;
42704;SDS011;28342;42.594;23.414;2024-02-21T13:16:09;5.95;;;2.72;;
42704;SDS011;28342;42.594;23.414;2024-02-21T13:18:35;3.95;;;2.30;;
42704;SDS011;28342;42.594;23.414;2024-02-21T13:21:03;2.67;;;2.35;;
42704;SDS011;28342;42.594;23.414;2024-02-21T13:23:29;2.95;;;2.20;;
42704;SDS011;28342;42.594;23.414;2024-02-21T13:25:54;2.55;;;2.35;;
42704;SDS011;28342;42.594;23.414;2024-02-21T13:28:20;10.00;;;2.65;;
42704;SDS011;28342;42.594;23.414;2024-02-21T13:30:45;8.50;;;2.47;;
42704;SDS011;28342;42.594;23.414;2024-02-21T13:33:11;3.35;;;2.55;;
42704;SDS011;28342;42.594;23.414;2024-02-21T13:35:37;5.00;;;2.35;;
42704;SDS011;28342;42.594;23.414;2024-02-21T13:38:03;3.17;;;2.20;;
42704;SDS011;28342;42.594;23.414;2024-02-21T13:40:28;3.03;;;2.40;;
42704;SDS011;28342;42.594;23.414;2024-02-21T13:42:54;2.88;;;2.25;;
42704;SDS011;28342;42.594;23.414;2024-02-21T13:45:19;3.35;;;2.63;;
42704;SDS011;28342;42.594;23.414;2024-02-21T13:47:45;3.70;;;2.30;;
42704;SDS011;28342;42.594;23.414;2024-02-21T13:50:11;3.70;;;2.38;;
42704;SDS011;28342;42.594;23.414;2024-02-21T13:52:40;3.88;;;3.08;;
42704;SDS011;28342;42.594;23.414;2024-02-21T13:55:05;4.75;;;2.20;;
42704;SDS011;28342;42.594;23.414;2024-02-21T13:57:34;3.75;;;2.25;;
42704;SDS011;28342;42.594;23.414;2024-02-21T14:00:03;4.85;;;2.58;;
42704;SDS011;28342;42.594;23.414;2024-02-21T14:02:35;2.70;;;1.95;;
42704;SDS011;28342;42.594;23.414;2024-02-21T14:05:01;2.38;;;2.15;;
42704;SDS011;28342;42.594;23.414;2024-02-21T14:07:29;3.65;;;2.55;;
42704;SDS011;28342;42.594;23.414;2024-02-21T14:09:55;2.55;;;2.35;;
42704;SDS011;28342;42.594;23.414;2024-02-21T14:12:20;2.75;;;2.50;;
42704;SDS011;28342;42.594;23.414;2024-02-21T14:14:46;4.63;;;2.72;;
42704;SDS011;28342;42.594;23.414;2024-02-21T14:17:12;3.08;;;2.28;;
42704;SDS011;28342;42.594;23.414;2024-02-21T14:19:38;4.32;;;2.72;;
42704;SDS011;28342;42.594;23.414;2024-02-21T14:22:03;2.63;;;2.30;;
42704;SDS011;28342;42.594;23.414;2024-02-21T14:24:29;3.28;;;2.58;;
42704;SDS011;28342;42.594;23.414;2024-02-21T14:26:54;3.60;;;2.40;;
42704;SDS011;28342;42.594;23.414;2024-02-21T14:29:20;2.70;;;2.38;;
42704;SDS011;28342;42.594;23.414;2024-02-21T14:31:46;2.95;;;2.53;;
42704;SDS011;28342;42.594;23.414;2024-02-21T14:34:11;3.33;;;2.38;;
42704;SDS011;28342;42.594;23.414;2024-02-21T14:36:37;3.25;;;2.45;;
42704;SDS011;28342;42.594;23.414;2024-02-21T14:39:02;3.25;;;2.30;;